sensor_id;sensor_type;location;lat;lon;timestamp;P1;durP1;ratioP1;P2;durP2;ratioP2
6422;SDS011;3244;42.708;23.288;2023-04-25T00:02:10;6.70;;;2.97;;
6422;SDS011;3244;42.708;23.288;2023-04-25T00:04:37;3.15;;;2.80;;
6422;SDS011;3244;42.708;23.288;2023-04-25T00:07:04;4.80;;;2.65;;
6422;SDS011;3244;42.708;23.288;2023-04-25T00:09:32;5.22;;;2.28;;
6422;SDS011;3244;42.708;23.288;2023-04-25T00:11:59;3.97;;;2.75;;
6422;SDS011;3244;42.708;23.288;2023-04-25T00:14:26;4.97;;;2.53;;
6422;SDS011;3244;42.708;23.288;2023-04-25T00:16:53;2.88;;;2.67;;
6422;SDS011;3244;42.708;23.288;2023-04-25T00:19:20;3.67;;;3.10;;
6422;SDS011;3244;42.708;23.288;2023-04-25T00:21:46;7.82;;;3.35;;
6422;SDS011;3244;42.708;23.288;2023-04-25T00:24:14;3.30;;;3.10;;
6422;SDS011;3244;42.708;23.288;2023-04-25T00:26:42;4.00;;;3.60;;
6422;SDS011;3244;42.708;23.288;2023-04-25T00:29:08;4.20;;;3.35;;
6422;SDS011;3244;42.708;23.288;2023-04-25T00:31:35;4.28;;;3.92;;
6422;SDS011;3244;42.708;23.288;2023-04-25T00:34:02;7.22;;;4.22;;
6422;SDS011;3244;42.708;23.288;2023-04-25T00:36:28;4.03;;;3.45;;
6422;SDS011;3244;42.708;23.288;2023-04-25T00:38:55;4.35;;;3.75;;
6422;SDS011;3244;42.708;23.288;2023-04-25T00:41:22;5.43;;;3.47;;
6422;SDS011;3244;42.708;23.288;2023-04-25T00:43:51;3.80;;;3.50;;
6422;SDS011;3244;42.708;23.288;2023-04-25T00:46:19;3.63;;;3.42;;
6422;SDS011;3244;42.708;23.288;2023-04-25T00:48:46;5.47;;;3.50;;
6422;SDS011;3244;42.708;23.288;2023-04-25T00:51:13;4.07;;;3.63;;
6422;SDS011;3244;42.708;23.288;2023-04-25T00:53:45;4.38;;;3.60;;
6422;SDS011;3244;42.708;23.288;2023-04-25T00:56:12;6.45;;;3.75;;
6422;SDS011;3244;42.708;23.288;2023-04-25T00:58:39;3.40;;;3.17;;
6422;SDS011;3244;42.708;23.288;2023-04-25T01:01:08;3.92;;;3.63;;
6422;SDS011;3244;42.708;23.288;2023-04-25T01:03:37;3.20;;;3.00;;
6422;SDS011;3244;42.708;23.288;2023-04-25T01:06:07;2.92;;;2.75;;
6422;SDS011;3244;42.708;23.288;2023-04-25T01:08:34;2.60;;;2.40;;
6422;SDS011;3244;42.708;23.288;2023-04-25T01:11:01;3.60;;;3.17;;
6422;SDS011;3244;42.708;23.288;2023-04-25T01:13:28;5.88;;;3.47;;
6422;SDS011;3244;42.708;23.288;2023-04-25T01:15:57;3.45;;;3.25;;
6422;SDS011;3244;42.708;23.288;2023-04-25T01:18:25;6.25;;;3.55;;
6422;SDS011;3244;42.708;23.288;2023-04-25T01:20:52;4.32;;;4.03;;
6422;SDS011;3244;42.708;23.288;2023-04-25T01:23:21;4.18;;;3.92;;
6422;SDS011;3244;42.708;23.288;2023-04-25T01:25:48;4.90;;;4.50;;
6422;SDS011;3244;42.708;23.288;2023-04-25T01:28:16;5.40;;;4.90;;
6422;SDS011;3244;42.708;23.288;2023-04-25T01:30:42;6.32;;;5.72;;
6422;SDS011;3244;42.708;23.288;2023-04-25T01:33:09;5.70;;;5.30;;
6422;SDS011;3244;42.708;23.288;2023-04-25T01:35:37;5.05;;;4.75;;
6422;SDS011;3244;42.708;23.288;2023-04-25T01:38:05;5.78;;;5.38;;
6422;SDS011;3244;42.708;23.288;2023-04-25T01:40:34;7.57;;;6.20;;
6422;SDS011;3244;42.708;23.288;2023-04-25T01:43:05;5.68;;;5.25;;
6422;SDS011;3244;42.708;23.288;2023-04-25T01:45:33;7.40;;;6.70;;
6422;SDS011;3244;42.708;23.288;2023-04-25T01:48:01;6.32;;;5.93;;
6422;SDS011;3244;42.708;23.288;2023-04-25T01:50:28;6.60;;;6.10;;
6422;SDS011;3244;42.708;23.288;2023-04-25T01:52:55;6.80;;;6.30;;
6422;SDS011;3244;42.708;23.288;2023-04-25T01:55:22;7.55;;;6.95;;
6422;SDS011;3244;42.708;23.288;2023-04-25T01:57:50;6.65;;;6.18;;
6422;SDS011;3244;42.708;23.288;2023-04-25T02:00:17;7.30;;;6.70;;
6422;SDS011;3244;42.708;23.288;2023-04-25T02:02:45;7.15;;;6.55;;
6422;SDS011;3244;42.708;23.288;2023-04-25T02:05:12;6.55;;;5.95;;
6422;SDS011;3244;42.708;23.288;2023-04-25T02:07:39;6.57;;;5.97;;
6422;SDS011;3244;42.708;23.288;2023-04-25T02:10:06;6.43;;;5.90;;
6422;SDS011;3244;42.708;23.288;2023-04-25T02:12:33;6.88;;;6.28;;
6422;SDS011;3244;42.708;23.288;2023-04-25T02:15:01;5.95;;;5.35;;
6422;SDS011;3244;42.708;23.288;2023-04-25T02:17:28;5.35;;;5.05;;
6422;SDS011;3244;42.708;23.288;2023-04-25T02:19:56;5.20;;;4.80;;
6422;SDS011;3244;42.708;23.288;2023-04-25T02:22:23;5.18;;;4.85;;
6422;SDS011;3244;42.708;23.288;2023-04-25T02:24:50;4.45;;;4.18;;
6422;SDS011;3244;42.708;23.288;2023-04-25T02:27:16;4.50;;;4.30;;
6422;SDS011;3244;42.708;23.288;2023-04-25T02:29:43;5.07;;;4.63;;
6422;SDS011;3244;42.708;23.288;2023-04-25T02:32:11;6.18;;;5.60;;
6422;SDS011;3244;42.708;23.288;2023-04-25T02:34:38;6.55;;;5.63;;
6422;SDS011;3244;42.708;23.288;2023-04-25T02:37:05;6.85;;;6.25;;
6422;SDS011;3244;42.708;23.288;2023-04-25T02:39:31;6.03;;;5.55;;
6422;SDS011;3244;42.708;23.288;2023-04-25T02:41:58;6.30;;;5.90;;
6422;SDS011;3244;42.708;23.288;2023-04-25T02:44:26;6.35;;;5.90;;
6422;SDS011;3244;42.708;23.288;2023-04-25T02:46:52;5.93;;;5.53;;
6422;SDS011;3244;42.708;23.288;2023-04-25T02:49:20;6.15;;;5.57;;
6422;SDS011;3244;42.708;23.288;2023-04-25T02:51:47;6.65;;;5.70;;
6422;SDS011;3244;42.708;23.288;2023-04-25T02:54:14;7.13;;;6.57;;
6422;SDS011;3244;42.708;23.288;2023-04-25T02:56:40;7.03;;;6.47;;
6422;SDS011;3244;42.708;23.288;2023-04-25T02:59:07;7.78;;;7.18;;
6422;SDS011;3244;42.708;23.288;2023-04-25T03:01:34;6.82;;;6.32;;
6422;SDS011;3244;42.708;23.288;2023-04-25T03:04:00;7.88;;;7.07;;
6422;SDS011;3244;42.708;23.288;2023-04-25T03:06:28;8.05;;;7.47;;
6422;SDS011;3244;42.708;23.288;2023-04-25T03:08:55;7.68;;;7.00;;
6422;SDS011;3244;42.708;23.288;2023-04-25T03:11:23;7.88;;;7.28;;
6422;SDS011;3244;42.708;23.288;2023-04-25T03:13:51;7.45;;;6.88;;
6422;SDS011;3244;42.708;23.288;2023-04-25T03:16:17;7.85;;;7.15;;
6422;SDS011;3244;42.708;23.288;2023-04-25T03:18:44;8.15;;;7.45;;
6422;SDS011;3244;42.708;23.288;2023-04-25T03:21:11;8.32;;;7.65;;
6422;SDS011;3244;42.708;23.288;2023-04-25T03:23:39;7.65;;;6.95;;
6422;SDS011;3244;42.708;23.288;2023-04-25T03:26:06;7.32;;;6.82;;
6422;SDS011;3244;42.708;23.288;2023-04-25T03:28:32;8.00;;;7.40;;
6422;SDS011;3244;42.708;23.288;2023-04-25T03:30:59;8.20;;;7.60;;
6422;SDS011;3244;42.708;23.288;2023-04-25T03:33:26;7.53;;;6.80;;
6422;SDS011;3244;42.708;23.288;2023-04-25T03:35:53;7.30;;;6.70;;
6422;SDS011;3244;42.708;23.288;2023-04-25T03:38:19;6.72;;;6.28;;
6422;SDS011;3244;42.708;23.288;2023-04-25T03:40:47;7.60;;;7.00;;
6422;SDS011;3244;42.708;23.288;2023-04-25T03:43:15;8.60;;;6.35;;
6422;SDS011;3244;42.708;23.288;2023-04-25T03:45:42;5.72;;;5.32;;
6422;SDS011;3244;42.708;23.288;2023-04-25T03:48:09;6.15;;;5.65;;
6422;SDS011;3244;42.708;23.288;2023-04-25T03:50:35;5.72;;;5.25;;
6422;SDS011;3244;42.708;23.288;2023-04-25T03:53:02;6.57;;;5.13;;
6422;SDS011;3244;42.708;23.288;2023-04-25T03:55:29;6.45;;;5.93;;
6422;SDS011;3244;42.708;23.288;2023-04-25T03:57:57;8.57;;;7.70;;
6422;SDS011;3244;42.708;23.288;2023-04-25T04:00:24;11.60;;;8.77;;
6422;SDS011;3244;42.708;23.288;2023-04-25T04:02:51;10.48;;;7.97;;
6422;SDS011;3244;42.708;23.288;2023-04-25T04:05:18;12.90;;;9.60;;
6422;SDS011;3244;42.708;23.288;2023-04-25T04:07:45;8.90;;;8.05;;
6422;SDS011;3244;42.708;23.288;2023-04-25T04:10:12;8.95;;;7.28;;
6422;SDS011;3244;42.708;23.288;2023-04-25T04:12:38;7.35;;;6.70;;
6422;SDS011;3244;42.708;23.288;2023-04-25T04:15:07;7.43;;;6.82;;
6422;SDS011;3244;42.708;23.288;2023-04-25T04:17:34;7.80;;;6.82;;
6422;SDS011;3244;42.708;23.288;2023-04-25T04:20:01;7.30;;;6.72;;
6422;SDS011;3244;42.708;23.288;2023-04-25T04:22:29;7.78;;;7.10;;
6422;SDS011;3244;42.708;23.288;2023-04-25T04:24:56;8.13;;;7.53;;
6422;SDS011;3244;42.708;23.288;2023-04-25T04:27:22;7.88;;;7.07;;
6422;SDS011;3244;42.708;23.288;2023-04-25T04:29:49;7.90;;;7.30;;
6422;SDS011;3244;42.708;23.288;2023-04-25T04:32:18;6.82;;;6.32;;
6422;SDS011;3244;42.708;23.288;2023-04-25T04:34:45;6.50;;;6.10;;
6422;SDS011;3244;42.708;23.288;2023-04-25T04:37:12;7.68;;;6.95;;
6422;SDS011;3244;42.708;23.288;2023-04-25T04:39:40;8.60;;;7.70;;
6422;SDS011;3244;42.708;23.288;2023-04-25T04:42:06;7.60;;;7.00;;
6422;SDS011;3244;42.708;23.288;2023-04-25T04:44:33;12.65;;;11.35;;
6422;SDS011;3244;42.708;23.288;2023-04-25T04:47:00;8.07;;;7.47;;
6422;SDS011;3244;42.708;23.288;2023-04-25T04:49:30;9.10;;;8.18;;
6422;SDS011;3244;42.708;23.288;2023-04-25T04:51:56;8.35;;;7.75;;
6422;SDS011;3244;42.708;23.288;2023-04-25T04:54:24;8.50;;;7.78;;
6422;SDS011;3244;42.708;23.288;2023-04-25T04:56:52;8.02;;;7.22;;
6422;SDS011;3244;42.708;23.288;2023-04-25T04:59:18;10.93;;;8.70;;
6422;SDS011;3244;42.708;23.288;2023-04-25T05:01:45;9.52;;;8.80;;
6422;SDS011;3244;42.708;23.288;2023-04-25T05:04:12;8.82;;;7.95;;
6422;SDS011;3244;42.708;23.288;2023-04-25T05:06:40;9.13;;;8.10;;
6422;SDS011;3244;42.708;23.288;2023-04-25T05:09:06;9.75;;;8.77;;
6422;SDS011;3244;42.708;23.288;2023-04-25T05:11:33;9.13;;;8.40;;
6422;SDS011;3244;42.708;23.288;2023-04-25T05:14:00;8.95;;;8.25;;
6422;SDS011;3244;42.708;23.288;2023-04-25T05:16:26;8.48;;;7.63;;
6422;SDS011;3244;42.708;23.288;2023-04-25T05:18:53;11.68;;;8.55;;
6422;SDS011;3244;42.708;23.288;2023-04-25T05:21:20;8.50;;;7.80;;
6422;SDS011;3244;42.708;23.288;2023-04-25T05:23:48;8.10;;;7.45;;
6422;SDS011;3244;42.708;23.288;2023-04-25T05:26:15;7.95;;;7.25;;
6422;SDS011;3244;42.708;23.288;2023-04-25T05:28:42;7.35;;;6.68;;
6422;SDS011;3244;42.708;23.288;2023-04-25T05:31:09;6.78;;;6.18;;
6422;SDS011;3244;42.708;23.288;2023-04-25T05:33:36;7.28;;;6.65;;
6422;SDS011;3244;42.708;23.288;2023-04-25T05:36:02;5.85;;;5.30;;
6422;SDS011;3244;42.708;23.288;2023-04-25T05:38:29;5.75;;;5.30;;
6422;SDS011;3244;42.708;23.288;2023-04-25T05:40:57;5.82;;;5.32;;
6422;SDS011;3244;42.708;23.288;2023-04-25T05:43:24;5.95;;;5.55;;
6422;SDS011;3244;42.708;23.288;2023-04-25T05:45:51;5.53;;;5.03;;
6422;SDS011;3244;42.708;23.288;2023-04-25T05:48:17;5.90;;;5.40;;
6422;SDS011;3244;42.708;23.288;2023-04-25T05:50:44;7.50;;;6.43;;
6422;SDS011;3244;42.708;23.288;2023-04-25T05:53:11;9.00;;;6.43;;
6422;SDS011;3244;42.708;23.288;2023-04-25T05:55:38;6.43;;;5.55;;
6422;SDS011;3244;42.708;23.288;2023-04-25T05:58:06;12.40;;;5.85;;
6422;SDS011;3244;42.708;23.288;2023-04-25T06:00:32;8.43;;;6.47;;
6422;SDS011;3244;42.708;23.288;2023-04-25T06:02:59;6.05;;;5.65;;
6422;SDS011;3244;42.708;23.288;2023-04-25T06:05:26;10.68;;;5.68;;
6422;SDS011;3244;42.708;23.288;2023-04-25T06:07:53;7.50;;;5.90;;
6422;SDS011;3244;42.708;23.288;2023-04-25T06:10:20;12.45;;;7.63;;
6422;SDS011;3244;42.708;23.288;2023-04-25T06:12:47;12.57;;;7.28;;
6422;SDS011;3244;42.708;23.288;2023-04-25T06:15:15;11.00;;;8.45;;
6422;SDS011;3244;42.708;23.288;2023-04-25T06:17:42;9.38;;;8.63;;
6422;SDS011;3244;42.708;23.288;2023-04-25T06:20:09;10.82;;;8.82;;
6422;SDS011;3244;42.708;23.288;2023-04-25T06:22:36;9.05;;;7.93;;
6422;SDS011;3244;42.708;23.288;2023-04-25T06:25:03;10.32;;;9.43;;
6422;SDS011;3244;42.708;23.288;2023-04-25T06:27:32;10.82;;;9.70;;
6422;SDS011;3244;42.708;23.288;2023-04-25T06:29:58;10.10;;;9.13;;
6422;SDS011;3244;42.708;23.288;2023-04-25T06:32:27;8.88;;;8.18;;
6422;SDS011;3244;42.708;23.288;2023-04-25T06:34:55;9.73;;;8.82;;
6422;SDS011;3244;42.708;23.288;2023-04-25T06:37:21;11.48;;;8.88;;
6422;SDS011;3244;42.708;23.288;2023-04-25T06:39:48;9.52;;;8.55;;
6422;SDS011;3244;42.708;23.288;2023-04-25T06:42:15;8.15;;;6.85;;
6422;SDS011;3244;42.708;23.288;2023-04-25T06:44:41;8.30;;;7.60;;
6422;SDS011;3244;42.708;23.288;2023-04-25T06:47:08;9.20;;;7.75;;
6422;SDS011;3244;42.708;23.288;2023-04-25T06:49:36;9.73;;;8.50;;
6422;SDS011;3244;42.708;23.288;2023-04-25T06:52:03;10.63;;;7.13;;
6422;SDS011;3244;42.708;23.288;2023-04-25T06:54:30;7.88;;;7.28;;
6422;SDS011;3244;42.708;23.288;2023-04-25T06:56:56;11.02;;;7.88;;
6422;SDS011;3244;42.708;23.288;2023-04-25T06:59:23;8.32;;;7.50;;
6422;SDS011;3244;42.708;23.288;2023-04-25T07:01:50;9.40;;;7.45;;
6422;SDS011;3244;42.708;23.288;2023-04-25T07:04:16;7.43;;;6.65;;
6422;SDS011;3244;42.708;23.288;2023-04-25T07:06:44;8.52;;;7.55;;
6422;SDS011;3244;42.708;23.288;2023-04-25T07:09:12;8.95;;;7.85;;
6422;SDS011;3244;42.708;23.288;2023-04-25T07:11:39;7.72;;;7.00;;
6422;SDS011;3244;42.708;23.288;2023-04-25T07:14:06;10.27;;;7.22;;
6422;SDS011;3244;42.708;23.288;2023-04-25T07:16:32;14.30;;;7.72;;
6422;SDS011;3244;42.708;23.288;2023-04-25T07:18:59;8.60;;;7.68;;
6422;SDS011;3244;42.708;23.288;2023-04-25T07:21:26;14.90;;;8.55;;
6422;SDS011;3244;42.708;23.288;2023-04-25T07:23:54;8.25;;;7.32;;
6422;SDS011;3244;42.708;23.288;2023-04-25T07:26:20;8.48;;;7.18;;
6422;SDS011;3244;42.708;23.288;2023-04-25T07:28:47;7.55;;;6.95;;
6422;SDS011;3244;42.708;23.288;2023-04-25T07:31:16;11.77;;;7.40;;
6422;SDS011;3244;42.708;23.288;2023-04-25T07:33:43;8.70;;;6.80;;
6422;SDS011;3244;42.708;23.288;2023-04-25T07:36:10;10.32;;;6.65;;
6422;SDS011;3244;42.708;23.288;2023-04-25T07:38:37;12.75;;;8.15;;
6422;SDS011;3244;42.708;23.288;2023-04-25T07:41:05;10.57;;;7.32;;
6422;SDS011;3244;42.708;23.288;2023-04-25T07:43:32;10.15;;;7.57;;
6422;SDS011;3244;42.708;23.288;2023-04-25T07:45:59;8.43;;;7.65;;
6422;SDS011;3244;42.708;23.288;2023-04-25T07:48:25;9.52;;;6.90;;
6422;SDS011;3244;42.708;23.288;2023-04-25T07:50:52;10.10;;;6.70;;
6422;SDS011;3244;42.708;23.288;2023-04-25T07:53:19;10.93;;;6.28;;
6422;SDS011;3244;42.708;23.288;2023-04-25T07:55:46;8.93;;;6.63;;
6422;SDS011;3244;42.708;23.288;2023-04-25T07:58:14;9.48;;;6.38;;
6422;SDS011;3244;42.708;23.288;2023-04-25T08:00:46;8.00;;;7.25;;
6422;SDS011;3244;42.708;23.288;2023-04-25T08:03:12;16.10;;;7.78;;
6422;SDS011;3244;42.708;23.288;2023-04-25T08:05:39;9.02;;;6.90;;
6422;SDS011;3244;42.708;23.288;2023-04-25T08:08:06;11.48;;;7.00;;
6422;SDS011;3244;42.708;23.288;2023-04-25T08:10:32;13.75;;;6.70;;
6422;SDS011;3244;42.708;23.288;2023-04-25T08:12:59;15.45;;;7.22;;
6422;SDS011;3244;42.708;23.288;2023-04-25T08:15:27;8.70;;;6.65;;
6422;SDS011;3244;42.708;23.288;2023-04-25T08:17:54;9.18;;;6.07;;
6422;SDS011;3244;42.708;23.288;2023-04-25T08:20:21;14.82;;;5.65;;
6422;SDS011;3244;42.708;23.288;2023-04-25T08:22:48;6.65;;;5.82;;
6422;SDS011;3244;42.708;23.288;2023-04-25T08:25:14;8.98;;;5.85;;
6422;SDS011;3244;42.708;23.288;2023-04-25T08:27:41;13.90;;;6.47;;
6422;SDS011;3244;42.708;23.288;2023-04-25T08:30:08;12.02;;;7.97;;
6422;SDS011;3244;42.708;23.288;2023-04-25T08:32:36;13.77;;;8.18;;
6422;SDS011;3244;42.708;23.288;2023-04-25T08:35:04;6.07;;;4.95;;
6422;SDS011;3244;42.708;23.288;2023-04-25T08:37:31;6.00;;;3.90;;
6422;SDS011;3244;42.708;23.288;2023-04-25T08:39:58;8.95;;;5.75;;
6422;SDS011;3244;42.708;23.288;2023-04-25T08:42:26;7.57;;;6.88;;
6422;SDS011;3244;42.708;23.288;2023-04-25T08:44:53;7.53;;;5.38;;
6422;SDS011;3244;42.708;23.288;2023-04-25T08:47:21;5.20;;;4.80;;
6422;SDS011;3244;42.708;23.288;2023-04-25T08:49:50;4.90;;;4.50;;
6422;SDS011;3244;42.708;23.288;2023-04-25T08:52:20;6.63;;;4.57;;
6422;SDS011;3244;42.708;23.288;2023-04-25T08:54:48;4.90;;;2.88;;
6422;SDS011;3244;42.708;23.288;2023-04-25T08:57:15;3.58;;;3.20;;
6422;SDS011;3244;42.708;23.288;2023-04-25T08:59:43;5.88;;;3.45;;
6422;SDS011;3244;42.708;23.288;2023-04-25T09:02:11;5.10;;;4.70;;
6422;SDS011;3244;42.708;23.288;2023-04-25T09:04:42;8.45;;;3.95;;
6422;SDS011;3244;42.708;23.288;2023-04-25T09:07:11;5.22;;;4.00;;
6422;SDS011;3244;42.708;23.288;2023-04-25T09:09:57;3.22;;;3.03;;
6422;SDS011;3244;42.708;23.288;2023-04-25T09:12:24;3.63;;;3.33;;
6422;SDS011;3244;42.708;23.288;2023-04-25T09:15:00;5.30;;;4.35;;
6422;SDS011;3244;42.708;23.288;2023-04-25T09:17:29;4.43;;;4.13;;
6422;SDS011;3244;42.708;23.288;2023-04-25T09:19:56;3.28;;;2.97;;
6422;SDS011;3244;42.708;23.288;2023-04-25T09:22:32;3.53;;;3.05;;
6422;SDS011;3244;42.708;23.288;2023-04-25T09:25:00;3.13;;;2.83;;
6422;SDS011;3244;42.708;23.288;2023-04-25T09:27:29;4.68;;;3.45;;
6422;SDS011;3244;42.708;23.288;2023-04-25T09:29:56;3.75;;;3.38;;
6422;SDS011;3244;42.708;23.288;2023-04-25T09:32:25;3.40;;;3.10;;
6422;SDS011;3244;42.708;23.288;2023-04-25T09:34:52;2.80;;;2.65;;
6422;SDS011;3244;42.708;23.288;2023-04-25T09:37:21;2.50;;;2.30;;
6422;SDS011;3244;42.708;23.288;2023-04-25T09:39:49;2.90;;;2.63;;
6422;SDS011;3244;42.708;23.288;2023-04-25T09:42:20;2.28;;;2.17;;
6422;SDS011;3244;42.708;23.288;2023-04-25T09:44:49;3.65;;;2.72;;
6422;SDS011;3244;42.708;23.288;2023-04-25T09:47:18;3.33;;;2.80;;
6422;SDS011;3244;42.708;23.288;2023-04-25T09:49:46;2.50;;;2.30;;
6422;SDS011;3244;42.708;23.288;2023-04-25T09:52:14;2.65;;;2.45;;
6422;SDS011;3244;42.708;23.288;2023-04-25T09:54:42;2.70;;;2.50;;
6422;SDS011;3244;42.708;23.288;2023-04-25T09:57:10;2.97;;;2.78;;
6422;SDS011;3244;42.708;23.288;2023-04-25T09:59:39;9.07;;;5.70;;
6422;SDS011;3244;42.708;23.288;2023-04-25T10:02:10;3.15;;;2.80;;
6422;SDS011;3244;42.708;23.288;2023-04-25T10:04:38;1.90;;;1.80;;
6422;SDS011;3244;42.708;23.288;2023-04-25T10:07:05;4.28;;;2.10;;
6422;SDS011;3244;42.708;23.288;2023-04-25T10:09:35;7.35;;;2.15;;
6422;SDS011;3244;42.708;23.288;2023-04-25T10:12:04;2.90;;;2.13;;
6422;SDS011;3244;42.708;23.288;2023-04-25T10:14:32;1.95;;;1.85;;
6422;SDS011;3244;42.708;23.288;2023-04-25T10:17:00;4.05;;;2.45;;
6422;SDS011;3244;42.708;23.288;2023-04-25T10:19:27;2.00;;;1.90;;
6422;SDS011;3244;42.708;23.288;2023-04-25T10:21:57;3.03;;;2.33;;
6422;SDS011;3244;42.708;23.288;2023-04-25T10:24:29;2.28;;;2.03;;
6422;SDS011;3244;42.708;23.288;2023-04-25T10:26:56;2.92;;;1.77;;
6422;SDS011;3244;42.708;23.288;2023-04-25T10:29:24;2.00;;;1.45;;
6422;SDS011;3244;42.708;23.288;2023-04-25T10:31:51;1.90;;;1.80;;
6422;SDS011;3244;42.708;23.288;2023-04-25T10:34:23;4.10;;;1.88;;
6422;SDS011;3244;42.708;23.288;2023-04-25T10:36:51;4.00;;;1.40;;
6422;SDS011;3244;42.708;23.288;2023-04-25T10:39:22;2.17;;;1.58;;
6422;SDS011;3244;42.708;23.288;2023-04-25T10:41:53;1.63;;;1.52;;
6422;SDS011;3244;42.708;23.288;2023-04-25T10:44:22;3.50;;;1.23;;
6422;SDS011;3244;42.708;23.288;2023-04-25T10:46:52;4.63;;;2.90;;
6422;SDS011;3244;42.708;23.288;2023-04-25T10:49:32;4.70;;;1.83;;
6422;SDS011;3244;42.708;23.288;2023-04-25T10:52:24;2.95;;;2.53;;
6422;SDS011;3244;42.708;23.288;2023-04-25T10:54:53;6.63;;;2.10;;
6422;SDS011;3244;42.708;23.288;2023-04-25T10:57:31;2.47;;;1.92;;
6422;SDS011;3244;42.708;23.288;2023-04-25T11:00:06;2.47;;;1.83;;
6422;SDS011;3244;42.708;23.288;2023-04-25T11:02:37;7.25;;;2.05;;
6422;SDS011;3244;42.708;23.288;2023-04-25T11:05:09;4.32;;;1.40;;
6422;SDS011;3244;42.708;23.288;2023-04-25T11:07:44;1.75;;;1.40;;
6422;SDS011;3244;42.708;23.288;2023-04-25T11:10:16;0.93;;;0.93;;
6422;SDS011;3244;42.708;23.288;2023-04-25T11:12:44;0.85;;;0.85;;
6422;SDS011;3244;42.708;23.288;2023-04-25T11:15:11;1.00;;;1.00;;
6422;SDS011;3244;42.708;23.288;2023-04-25T11:17:38;1.27;;;1.17;;
6422;SDS011;3244;42.708;23.288;2023-04-25T11:20:06;2.55;;;1.30;;
6422;SDS011;3244;42.708;23.288;2023-04-25T11:22:37;1.33;;;1.23;;
6422;SDS011;3244;42.708;23.288;2023-04-25T11:25:06;1.17;;;1.17;;
6422;SDS011;3244;42.708;23.288;2023-04-25T11:27:33;3.75;;;1.50;;
6422;SDS011;3244;42.708;23.288;2023-04-25T11:30:10;1.50;;;1.40;;
6422;SDS011;3244;42.708;23.288;2023-04-25T11:32:39;1.17;;;1.17;;
6422;SDS011;3244;42.708;23.288;2023-04-25T11:35:06;3.40;;;3.17;;
6422;SDS011;3244;42.708;23.288;2023-04-25T11:37:33;6.32;;;2.88;;
6422;SDS011;3244;42.708;23.288;2023-04-25T11:40:01;8.15;;;1.60;;
6422;SDS011;3244;42.708;23.288;2023-04-25T11:42:31;2.75;;;1.80;;
6422;SDS011;3244;42.708;23.288;2023-04-25T11:44:58;1.63;;;1.48;;
6422;SDS011;3244;42.708;23.288;2023-04-25T11:47:29;1.60;;;1.10;;
6422;SDS011;3244;42.708;23.288;2023-04-25T11:49:57;1.27;;;1.20;;
6422;SDS011;3244;42.708;23.288;2023-04-25T11:52:24;2.25;;;1.35;;
6422;SDS011;3244;42.708;23.288;2023-04-25T11:54:51;2.55;;;1.40;;
6422;SDS011;3244;42.708;23.288;2023-04-25T11:57:20;1.60;;;1.10;;
6422;SDS011;3244;42.708;23.288;2023-04-25T11:59:46;1.00;;;0.95;;
6422;SDS011;3244;42.708;23.288;2023-04-25T12:02:23;3.72;;;1.38;;
6422;SDS011;3244;42.708;23.288;2023-04-25T12:04:51;2.00;;;1.52;;
6422;SDS011;3244;42.708;23.288;2023-04-25T12:07:18;1.05;;;1.00;;
6422;SDS011;3244;42.708;23.288;2023-04-25T12:09:51;1.15;;;0.80;;
6422;SDS011;3244;42.708;23.288;2023-04-25T12:12:17;1.10;;;1.00;;
6422;SDS011;3244;42.708;23.288;2023-04-25T12:14:46;1.20;;;1.10;;
6422;SDS011;3244;42.708;23.288;2023-04-25T12:17:14;1.30;;;1.20;;
6422;SDS011;3244;42.708;23.288;2023-04-25T12:19:40;1.17;;;1.17;;
6422;SDS011;3244;42.708;23.288;2023-04-25T12:22:18;1.25;;;1.15;;
6422;SDS011;3244;42.708;23.288;2023-04-25T12:24:47;1.88;;;1.42;;
6422;SDS011;3244;42.708;23.288;2023-04-25T12:27:14;1.30;;;1.20;;
6422;SDS011;3244;42.708;23.288;2023-04-25T12:29:51;4.18;;;1.30;;
6422;SDS011;3244;42.708;23.288;2023-04-25T12:32:19;3.17;;;1.40;;
6422;SDS011;3244;42.708;23.288;2023-04-25T12:34:46;3.80;;;1.70;;
6422;SDS011;3244;42.708;23.288;2023-04-25T12:37:13;3.17;;;1.20;;
6422;SDS011;3244;42.708;23.288;2023-04-25T12:39:40;2.22;;;1.30;;
6422;SDS011;3244;42.708;23.288;2023-04-25T12:42:06;2.53;;;1.35;;
6422;SDS011;3244;42.708;23.288;2023-04-25T12:44:36;1.13;;;1.02;;
6422;SDS011;3244;42.708;23.288;2023-04-25T12:47:04;1.50;;;1.40;;
6422;SDS011;3244;42.708;23.288;2023-04-25T12:49:31;1.48;;;0.80;;
6422;SDS011;3244;42.708;23.288;2023-04-25T12:51:58;1.25;;;1.15;;
6422;SDS011;3244;42.708;23.288;2023-04-25T12:54:25;1.10;;;0.98;;
6422;SDS011;3244;42.708;23.288;2023-04-25T12:56:51;2.90;;;0.95;;
6422;SDS011;3244;42.708;23.288;2023-04-25T12:59:18;1.85;;;0.80;;
6422;SDS011;3244;42.708;23.288;2023-04-25T13:01:46;1.92;;;1.25;;
6422;SDS011;3244;42.708;23.288;2023-04-25T13:04:14;2.45;;;1.00;;
6422;SDS011;3244;42.708;23.288;2023-04-25T13:06:41;1.13;;;1.13;;
6422;SDS011;3244;42.708;23.288;2023-04-25T13:09:08;2.03;;;1.55;;
6422;SDS011;3244;42.708;23.288;2023-04-25T13:11:34;2.97;;;2.55;;
6422;SDS011;3244;42.708;23.288;2023-04-25T13:14:01;2.80;;;1.77;;
6422;SDS011;3244;42.708;23.288;2023-04-25T13:16:28;1.58;;;1.48;;
6422;SDS011;3244;42.708;23.288;2023-04-25T13:18:55;3.15;;;2.30;;
6422;SDS011;3244;42.708;23.288;2023-04-25T13:21:23;3.88;;;3.45;;
6422;SDS011;3244;42.708;23.288;2023-04-25T13:23:50;3.80;;;3.50;;
6422;SDS011;3244;42.708;23.288;2023-04-25T13:26:17;7.65;;;6.50;;
6422;SDS011;3244;42.708;23.288;2023-04-25T13:28:44;9.70;;;5.53;;
6422;SDS011;3244;42.708;23.288;2023-04-25T13:31:10;7.25;;;4.55;;
6422;SDS011;3244;42.708;23.288;2023-04-25T13:33:37;4.68;;;4.28;;
6422;SDS011;3244;42.708;23.288;2023-04-25T13:36:04;7.15;;;5.18;;
6422;SDS011;3244;42.708;23.288;2023-04-25T13:38:32;9.27;;;4.80;;
6422;SDS011;3244;42.708;23.288;2023-04-25T13:40:59;11.65;;;5.07;;
6422;SDS011;3244;42.708;23.288;2023-04-25T13:43:26;6.80;;;5.00;;
6422;SDS011;3244;42.708;23.288;2023-04-25T13:45:52;8.07;;;5.35;;
6422;SDS011;3244;42.708;23.288;2023-04-25T13:48:19;7.95;;;5.22;;
6422;SDS011;3244;42.708;23.288;2023-04-25T13:50:47;6.88;;;5.07;;
6422;SDS011;3244;42.708;23.288;2023-04-25T13:53:14;11.38;;;6.20;;
6422;SDS011;3244;42.708;23.288;2023-04-25T13:55:42;7.03;;;6.03;;
6422;SDS011;3244;42.708;23.288;2023-04-25T13:58:09;7.38;;;6.22;;
6422;SDS011;3244;42.708;23.288;2023-04-25T14:00:36;10.57;;;5.18;;
6422;SDS011;3244;42.708;23.288;2023-04-25T14:03:05;7.43;;;4.72;;
6422;SDS011;3244;42.708;23.288;2023-04-25T14:05:32;2.13;;;1.92;;
6422;SDS011;3244;42.708;23.288;2023-04-25T14:08:03;2.20;;;1.77;;
6422;SDS011;3244;42.708;23.288;2023-04-25T14:10:30;2.15;;;1.85;;
6422;SDS011;3244;42.708;23.288;2023-04-25T14:12:59;1.58;;;1.48;;
6422;SDS011;3244;42.708;23.288;2023-04-25T14:15:28;1.67;;;1.58;;
6422;SDS011;3244;42.708;23.288;2023-04-25T14:17:55;4.80;;;1.50;;
6422;SDS011;3244;42.708;23.288;2023-04-25T14:20:22;1.85;;;1.75;;
6422;SDS011;3244;42.708;23.288;2023-04-25T14:22:49;2.22;;;1.98;;
6422;SDS011;3244;42.708;23.288;2023-04-25T14:25:17;1.83;;;1.70;;
6422;SDS011;3244;42.708;23.288;2023-04-25T14:27:43;2.30;;;2.20;;
6422;SDS011;3244;42.708;23.288;2023-04-25T14:30:16;2.20;;;1.95;;
6422;SDS011;3244;42.708;23.288;2023-04-25T14:32:43;5.95;;;5.55;;
6422;SDS011;3244;42.708;23.288;2023-04-25T14:35:10;3.58;;;3.38;;
6422;SDS011;3244;42.708;23.288;2023-04-25T14:37:37;3.65;;;3.03;;
6422;SDS011;3244;42.708;23.288;2023-04-25T14:40:04;3.55;;;2.42;;
6422;SDS011;3244;42.708;23.288;2023-04-25T14:42:33;3.42;;;2.35;;
6422;SDS011;3244;42.708;23.288;2023-04-25T14:44:59;2.25;;;2.05;;
6422;SDS011;3244;42.708;23.288;2023-04-25T14:47:27;2.50;;;1.70;;
6422;SDS011;3244;42.708;23.288;2023-04-25T14:49:54;1.38;;;1.35;;
6422;SDS011;3244;42.708;23.288;2023-04-25T14:52:22;1.75;;;1.65;;
6422;SDS011;3244;42.708;23.288;2023-04-25T14:54:49;1.92;;;1.83;;
6422;SDS011;3244;42.708;23.288;2023-04-25T14:57:16;1.73;;;1.63;;
6422;SDS011;3244;42.708;23.288;2023-04-25T14:59:43;3.13;;;1.60;;
6422;SDS011;3244;42.708;23.288;2023-04-25T15:02:10;2.05;;;1.85;;
6422;SDS011;3244;42.708;23.288;2023-04-25T15:04:38;1.65;;;1.55;;